| time (UTC) | temp C | wind direction | speed KPH | gust KPH | rain 1hr cm | rain 24hr cm | rain mn cm | humidity % | barometer mb |
| 20260906233054 | 17 | 307 | 3.2 | 11.3 | 0.00 | 0.18 | 0.00 | 72 | 1014.3 |
| 20260906231546 | 17 | 288 | 6.4 | 16.1 | 0.00 | 0.18 | 0.00 | 74 | 1014.4 |
| 20260906230051 | 17 | 332 | 3.2 | 9.7 | 0.00 | 0.18 | 0.00 | 74 | 1014.6 |
| 20260906224545 | 17 | 304 | 3.2 | 11.3 | 0.00 | 0.18 | 0.00 | 73 | 1014.6 |
| 20260906223046 | 18 | 283 | 1.6 | 11.3 | 0.00 | 0.18 | 0.00 | 73 | 1014.9 |
| 20260906221543 | 17 | 213 | 1.6 | 9.7 | 0.00 | 0.18 | 0.00 | 74 | 1015.1 |
| 20260906220051 | 18 | 274 | 3.2 | 8.0 | 0.00 | 0.18 | 0.00 | 73 | 1015.0 |
| 20260906214550 | 18 | 297 | 3.2 | 8.0 | 0.00 | 0.18 | 0.00 | 71 | 1014.9 |
| 20260906213043 | 18 | 298 | 1.6 | 3.2 | 0.00 | 0.18 | 0.00 | 71 | 1014.9 |
| 20260906211551 | 18 | 288 | 1.6 | 4.8 | 0.00 | 0.18 | 0.00 | 68 | 1015.0 |
| 20260906210106 | 18 | 336 | 0.0 | 3.2 | 0.00 | 0.18 | 0.00 | 67 | 1015.0 |
| 20260906204547 | 18 | 346 | 0.0 | 4.8 | 0.00 | 0.18 | 0.00 | 70 | 1015.0 |
| 20260906203045 | 18 | 0 | 0.0 | 6.4 | 0.00 | 0.18 | 0.00 | 68 | 1015.1 |
| 20260906201628 | 18 | 0 | 1.6 | 8.0 | 0.00 | 0.18 | 0.00 | 68 | 1015.1 |
| 20260906200047 | 17 | 69 | 1.6 | 3.2 | 0.00 | 0.18 | 0.00 | 70 | 1015.2 |
| 20260906194544 | 17 | 0 | 0.0 | 8.0 | 0.00 | 0.18 | 0.00 | 72 | 1015.4 |
| 20260906193043 | 17 | 76 | 0.0 | 6.4 | 0.00 | 0.18 | 0.00 | 72 | 1015.7 |
| 20260906191607 | 17 | 0 | 1.6 | 8.0 | 0.00 | 0.18 | 0.00 | 71 | 1015.5 |
| 20260906190047 | 17 | 69 | 1.6 | 9.7 | 0.00 | 0.18 | 0.00 | 71 | 1015.7 |
| 20260906184547 | 17 | 64 | 6.4 | 14.5 | 0.00 | 0.18 | 0.00 | 73 | 1015.7 |
| 20260906183048 | 17 | 14 | 4.8 | 16.1 | 0.00 | 0.18 | 0.00 | 73 | 1015.7 |
| 20260906181600 | 16 | 0 | 0.0 | 16.1 | 0.00 | 0.18 | 0.00 | 77 | 1015.9 |
| 20260906180044 | 16 | 56 | 3.2 | 9.7 | 0.00 | 0.18 | 0.00 | 79 | 1016.2 |
| 20260906174555 | 16 | 290 | 1.6 | 9.7 | 0.00 | 0.18 | 0.00 | 82 | 1016.1 |
| 20260906173047 | 15 | 348 | 1.6 | 11.3 | 0.00 | 0.18 | 0.00 | 83 | 1015.9 |
| 20260906171546 | 13 | 15 | 1.6 | 11.3 | 0.00 | 0.18 | 0.00 | 84 | 1016.3 |
| 20260906170044 | 13 | 307 | 4.8 | 16.1 | 0.00 | 0.18 | 0.00 | 84 | 1017.3 |
| 20260906164552 | 13 | 300 | 3.2 | 11.3 | 0.00 | 0.18 | 0.00 | 83 | 1017.4 |
| 20260906163056 | 13 | 311 | 4.8 | 11.3 | 0.00 | 0.18 | 0.00 | 82 | 1017.5 |
| 20260906161544 | 13 | 274 | 4.8 | 11.3 | 0.00 | 0.18 | 0.00 | 82 | 1017.6 |
| 20260906160043 | 13 | 291 | 3.2 | 11.3 | 0.00 | 0.18 | 0.00 | 81 | 1017.5 |
| 20260906154551 | 13 | 306 | 4.8 | 12.9 | 0.00 | 0.18 | 0.00 | 80 | 1017.6 |
| 20260906153046 | 13 | 308 | 3.2 | 12.9 | 0.00 | 0.18 | 0.00 | 82 | 1017.9 |
| 20260906151546 | 13 | 27 | 6.4 | 17.7 | 0.00 | 0.18 | 0.00 | 80 | 1017.9 |
| 20260906150051 | 13 | 320 | 4.8 | 17.7 | 0.00 | 0.18 | 0.00 | 83 | 1018.0 |
| 20260906144547 | 13 | 279 | 6.4 | 17.7 | 0.00 | 0.18 | 0.00 | 83 | 1018.4 |
| 20260906143050 | 13 | 317 | 9.7 | 24.1 | 0.00 | 0.18 | 0.00 | 82 | 1018.5 |
| 20260906141540 | 15 | 282 | 6.4 | 11.3 | 0.00 | 0.18 | 0.00 | 80 | 1018.2 |
| 20260906140059 | 15 | 0 | 0.0 | 0.0 | 0.00 | 0.18 | 0.00 | 82 | 1017.8 |
| 20260906134558 | 15 | 0 | 0.0 | 0.0 | 0.00 | 0.30 | 0.00 | 81 | 1017.7 |
| 20260906133043 | 15 | 0 | 0.0 | 3.2 | 0.00 | 0.30 | 0.00 | 81 | 1017.7 |
| 20260906131551 | 15 | 132 | 0.0 | 6.4 | 0.00 | 0.30 | 0.00 | 81 | 1017.6 |
| 20260906130057 | 15 | 344 | 0.0 | 9.7 | 0.00 | 0.30 | 0.00 | 80 | 1017.6 |
| 20260906124545 | 15 | 316 | 1.6 | 8.0 | 0.00 | 0.30 | 0.00 | 82 | 1017.7 |
| 20260906123043 | 15 | 309 | 3.2 | 11.3 | 0.00 | 0.30 | 0.00 | 82 | 1017.6 |
| 20260906121600 | 15 | 297 | 3.2 | 17.7 | 0.00 | 0.30 | 0.00 | 81 | 1017.4 |
| 20260906120047 | 15 | 314 | 3.2 | 9.7 | 0.00 | 0.30 | 0.00 | 81 | 1017.2 |
| 20260906114600 | 15 | 335 | 3.2 | 11.3 | 0.00 | 0.30 | 0.00 | 81 | 1017.3 |
| 20260906113053 | 15 | 327 | 6.4 | 12.9 | 0.00 | 0.30 | 0.00 | 80 | 1017.5 |
| 20260906111549 | 15 | 331 | 6.4 | 14.5 | 0.00 | 0.30 | 0.00 | 80 | 1017.5 |
| 20260906110043 | 15 | 313 | 6.4 | 12.9 | 0.00 | 0.30 | 0.00 | 80 | 1017.6 |
| 20260906104542 | 15 | 328 | 3.2 | 14.5 | 0.00 | 0.30 | 0.00 | 80 | 1017.8 |
| 20260906103046 | 15 | 344 | 9.7 | 17.7 | 0.00 | 0.30 | 0.00 | 79 | 1017.7 |
| 20260906101543 | 14 | 1 | 4.8 | 11.3 | 0.00 | 0.30 | 0.00 | 80 | 1017.5 |
| 20260906100042 | 14 | 341 | 4.8 | 12.9 | 0.00 | 0.30 | 0.00 | 80 | 1017.5 |
| 20260906094553 | 15 | 311 | 4.8 | 19.3 | 0.00 | 0.30 | 0.00 | 79 | 1017.6 |
| 20260906093046 | 15 | 357 | 4.8 | 16.1 | 0.00 | 0.30 | 0.00 | 80 | 1017.5 |
| 20260906091548 | 15 | 334 | 6.4 | 14.5 | 0.00 | 0.30 | 0.00 | 80 | 1017.5 |
| 20260906090044 | 14 | 14 | 4.8 | 12.9 | 0.00 | 0.30 | 0.00 | 81 | 1017.8 |
| 20260906084550 | 14 | 4 | 3.2 | 11.3 | 0.00 | 0.30 | 0.00 | 81 | 1018.0 |
| 20260906083046 | 14 | 308 | 4.8 | 14.5 | 0.00 | 0.30 | 0.00 | 83 | 1018.4 |
| 20260906081547 | 14 | 290 | 4.8 | 11.3 | 0.00 | 0.30 | 0.00 | 83 | 1018.8 |
| 20260906080046 | 15 | 308 | 1.6 | 6.4 | 0.00 | 0.30 | 0.00 | 82 | 1019.0 |
| 20260906074553 | 14 | 263 | 0.0 | 4.8 | 0.00 | 0.30 | 0.00 | 81 | 1019.1 |
| 20260906073048 | 14 | 303 | 1.6 | 3.2 | 0.00 | 0.30 | 0.00 | 81 | 1018.8 |
| 20260906071547 | 14 | 295 | 0.0 | 8.0 | 0.00 | 0.30 | 0.00 | 78 | 1018.8 |
| 20260906070051 | 14 | 345 | 3.2 | 11.3 | 0.00 | 0.30 | 0.00 | 78 | 1019.0 |
| 20260906064546 | 14 | 338 | 4.8 | 16.1 | 0.00 | 0.30 | 0.00 | 78 | 1019.0 |
| 20260906063047 | 14 | 329 | 3.2 | 11.3 | 0.00 | 0.30 | 0.00 | 78 | 1019.2 |
| 20260906061546 | 14 | 333 | 4.8 | 17.7 | 0.00 | 0.30 | 0.00 | 80 | 1019.5 |
| 20260906060135 | 14 | 281 | 3.2 | 8.0 | 0.00 | 0.30 | 0.00 | 83 | 1019.6 |
| 20260906054548 | 14 | 319 | 1.6 | 6.4 | 0.00 | 0.30 | 0.30 | 82 | 1019.6 |
| 20260906053041 | 14 | 295 | 0.0 | 8.0 | 0.00 | 0.30 | 0.30 | 80 | 1019.5 |
| 20260906051547 | 14 | 307 | 1.6 | 8.0 | 0.00 | 0.30 | 0.30 | 82 | 1018.9 |
| 20260906050100 | 13 | 295 | 0.0 | 8.0 | 0.00 | 0.30 | 0.30 | 84 | 1018.8 |
| 20260906044545 | 13 | 311 | 3.2 | 11.3 | 0.00 | 0.30 | 0.30 | 82 | 1018.7 |
| 20260906043049 | 14 | 323 | 3.2 | 8.0 | 0.00 | 0.30 | 0.30 | 79 | 1018.7 |
| 20260906041545 | 15 | 320 | 4.8 | 11.3 | 0.00 | 0.30 | 0.30 | 78 | 1018.7 |
| 20260906040047 | 15 | 286 | 6.4 | 12.9 | 0.05 | 0.30 | 0.30 | 76 | 1017.9 |
| 20260906034554 | 15 | 326 | 8.0 | 16.1 | 0.18 | 0.30 | 0.30 | 72 | 1017.5 |
| 20260906033048 | 15 | 304 | 8.0 | 16.1 | 0.18 | 0.30 | 0.30 | 72 | 1017.8 |
| 20260906031607 | 15 | 330 | 3.2 | 11.3 | 0.18 | 0.30 | 0.30 | 74 | 1018.3 |
| 20260906030042 | 17 | 316 | 3.2 | 12.9 | 0.10 | 0.23 | 0.23 | 66 | 1018.2 |
| 20260906024556 | 17 | 308 | 8.0 | 14.5 | 0.00 | 0.13 | 0.13 | 62 | 1017.8 |
| 20260906023104 | 17 | 16 | 4.8 | 14.5 | 0.00 | 0.13 | 0.13 | 61 | 1016.2 |
| 20260906021543 | 17 | 282 | 3.2 | 17.7 | 0.00 | 0.13 | 0.13 | 59 | 1016.3 |
| 20260906020056 | 17 | 18 | 1.6 | 8.0 | 0.00 | 0.13 | 0.13 | 57 | 1016.4 |
| 20260906014546 | 18 | 319 | 4.8 | 11.3 | 0.00 | 0.13 | 0.13 | 56 | 1016.2 |
| 20260906013045 | 18 | 340 | 6.4 | 14.5 | 0.00 | 0.13 | 0.13 | 55 | 1016.4 |
| 20260906011547 | 19 | 332 | 1.6 | 9.7 | 0.00 | 0.13 | 0.13 | 53 | 1016.4 |
| 20260906010051 | 20 | 331 | 4.8 | 16.1 | 0.00 | 0.13 | 0.13 | 51 | 1016.4 |
| 20260906004553 | 20 | 331 | 6.4 | 14.5 | 0.00 | 0.13 | 0.13 | 52 | 1016.2 |
| 20260906003051 | 20 | 326 | 4.8 | 12.9 | 0.00 | 0.13 | 0.13 | 51 | 1016.3 |
| 20260906001547 | 21 | 324 | 6.4 | 17.7 | 0.00 | 0.13 | 0.13 | 50 | 1016.5 |
| 20260906000058 | 21 | 295 | 4.8 | 14.5 | 0.00 | 0.13 | 0.13 | 47 | 1016.4 |
| 20260905234547 | 21 | 323 | 4.8 | 14.5 | 0.00 | 0.13 | 0.13 | 49 | 1016.3 |